sensor_id;sensor_type;location;lat;lon;timestamp;temperature;humidity
12885;DHT22;6510;51.362;7.370;2023-05-10T00:01:46;12.10;99.90
12885;DHT22;6510;51.362;7.370;2023-05-10T00:04:12;12.10;99.90
12885;DHT22;6510;51.362;7.370;2023-05-10T00:06:37;12.10;99.90
12885;DHT22;6510;51.362;7.370;2023-05-10T00:09:03;12.10;99.90
12885;DHT22;6510;51.362;7.370;2023-05-10T00:11:29;12.10;99.90
12885;DHT22;6510;51.362;7.370;2023-05-10T00:13:55;12.00;99.90
12885;DHT22;6510;51.362;7.370;2023-05-10T00:16:21;12.00;99.90
12885;DHT22;6510;51.362;7.370;2023-05-10T00:18:46;12.00;99.90
12885;DHT22;6510;51.362;7.370;2023-05-10T00:21:12;12.00;99.90
12885;DHT22;6510;51.362;7.370;2023-05-10T00:23:37;12.00;99.90
12885;DHT22;6510;51.362;7.370;2023-05-10T00:26:03;12.00;99.90
12885;DHT22;6510;51.362;7.370;2023-05-10T00:28:29;12.00;99.90
12885;DHT22;6510;51.362;7.370;2023-05-10T00:30:55;12.00;99.90
12885;DHT22;6510;51.362;7.370;2023-05-10T00:33:21;12.00;99.90
12885;DHT22;6510;51.362;7.370;2023-05-10T00:35:47;11.90;99.90
12885;DHT22;6510;51.362;7.370;2023-05-10T00:38:12;12.00;99.90
12885;DHT22;6510;51.362;7.370;2023-05-10T00:40:38;11.90;99.90
12885;DHT22;6510;51.362;7.370;2023-05-10T00:43:04;12.00;99.90
12885;DHT22;6510;51.362;7.370;2023-05-10T00:45:32;12.00;99.90
12885;DHT22;6510;51.362;7.370;2023-05-10T00:48:00;11.90;99.90
12885;DHT22;6510;51.362;7.370;2023-05-10T00:50:26;11.90;99.90
12885;DHT22;6510;51.362;7.370;2023-05-10T00:52:52;11.90;99.90
12885;DHT22;6510;51.362;7.370;2023-05-10T00:55:18;11.90;99.90
12885;DHT22;6510;51.362;7.370;2023-05-10T00:57:44;11.90;99.90
12885;DHT22;6510;51.362;7.370;2023-05-10T01:00:10;11.90;99.90
12885;DHT22;6510;51.362;7.370;2023-05-10T01:02:36;11.90;99.90
12885;DHT22;6510;51.362;7.370;2023-05-10T01:05:02;11.90;99.90
12885;DHT22;6510;51.362;7.370;2023-05-10T01:07:31;11.90;99.90
12885;DHT22;6510;51.362;7.370;2023-05-10T01:09:57;11.80;99.90
12885;DHT22;6510;51.362;7.370;2023-05-10T01:12:23;11.80;99.90
12885;DHT22;6510;51.362;7.370;2023-05-10T01:14:49;11.80;99.90
12885;DHT22;6510;51.362;7.370;2023-05-10T01:17:15;11.90;99.90
12885;DHT22;6510;51.362;7.370;2023-05-10T01:19:41;11.90;99.90
12885;DHT22;6510;51.362;7.370;2023-05-10T01:22:25;11.90;99.90
12885;DHT22;6510;51.362;7.370;2023-05-10T01:28:17;11.90;99.90
12885;DHT22;6510;51.362;7.370;2023-05-10T01:30:57;12.00;99.90
12885;DHT22;6510;51.362;7.370;2023-05-10T01:34:07;12.00;99.90
12885;DHT22;6510;51.362;7.370;2023-05-10T01:36:43;12.00;99.90
12885;DHT22;6510;51.362;7.370;2023-05-10T01:39:32;12.00;99.90
12885;DHT22;6510;51.362;7.370;2023-05-10T01:42:10;12.00;99.90
12885;DHT22;6510;51.362;7.370;2023-05-10T01:44:58;11.90;99.90
12885;DHT22;6510;51.362;7.370;2023-05-10T01:47:44;12.00;99.90
12885;DHT22;6510;51.362;7.370;2023-05-10T01:50:17;12.00;99.90
12885;DHT22;6510;51.362;7.370;2023-05-10T01:52:49;12.00;99.90
12885;DHT22;6510;51.362;7.370;2023-05-10T01:55:16;11.90;99.90
12885;DHT22;6510;51.362;7.370;2023-05-10T01:57:44;12.00;99.90
12885;DHT22;6510;51.362;7.370;2023-05-10T02:00:12;11.90;99.90
12885;DHT22;6510;51.362;7.370;2023-05-10T02:02:42;11.90;99.90
12885;DHT22;6510;51.362;7.370;2023-05-10T02:05:12;11.90;99.90
12885;DHT22;6510;51.362;7.370;2023-05-10T02:07:39;11.90;99.90
12885;DHT22;6510;51.362;7.370;2023-05-10T02:10:06;11.90;99.90
12885;DHT22;6510;51.362;7.370;2023-05-10T02:12:39;11.90;99.90
12885;DHT22;6510;51.362;7.370;2023-05-10T02:15:07;11.90;99.90
12885;DHT22;6510;51.362;7.370;2023-05-10T02:17:35;11.90;99.90
12885;DHT22;6510;51.362;7.370;2023-05-10T02:20:03;11.90;99.90
12885;DHT22;6510;51.362;7.370;2023-05-10T02:22:30;11.80;99.90
12885;DHT22;6510;51.362;7.370;2023-05-10T02:24:58;11.80;99.90
12885;DHT22;6510;51.362;7.370;2023-05-10T02:27:24;11.80;99.90
12885;DHT22;6510;51.362;7.370;2023-05-10T02:29:51;11.80;99.90
12885;DHT22;6510;51.362;7.370;2023-05-10T02:32:18;11.70;99.90
12885;DHT22;6510;51.362;7.370;2023-05-10T02:34:45;11.70;99.90
12885;DHT22;6510;51.362;7.370;2023-05-10T02:37:21;11.70;99.90
12885;DHT22;6510;51.362;7.370;2023-05-10T02:39:48;11.60;99.90
12885;DHT22;6510;51.362;7.370;2023-05-10T02:42:17;11.60;99.90
12885;DHT22;6510;51.362;7.370;2023-05-10T02:44:46;11.60;99.90
12885;DHT22;6510;51.362;7.370;2023-05-10T02:47:13;11.60;99.90
12885;DHT22;6510;51.362;7.370;2023-05-10T02:49:38;11.60;99.90
12885;DHT22;6510;51.362;7.370;2023-05-10T02:52:05;11.60;99.90
12885;DHT22;6510;51.362;7.370;2023-05-10T02:54:43;11.60;99.90
12885;DHT22;6510;51.362;7.370;2023-05-10T02:57:14;11.60;99.90
12885;DHT22;6510;51.362;7.370;2023-05-10T02:59:40;11.60;99.90
12885;DHT22;6510;51.362;7.370;2023-05-10T03:02:08;11.60;99.90
12885;DHT22;6510;51.362;7.370;2023-05-10T03:04:34;11.50;99.90
12885;DHT22;6510;51.362;7.370;2023-05-10T03:07:00;11.50;99.90
12885;DHT22;6510;51.362;7.370;2023-05-10T03:09:26;11.40;99.90
12885;DHT22;6510;51.362;7.370;2023-05-10T03:12:04;11.50;99.90
12885;DHT22;6510;51.362;7.370;2023-05-10T03:14:47;11.40;99.90
12885;DHT22;6510;51.362;7.370;2023-05-10T03:17:30;11.40;99.90
12885;DHT22;6510;51.362;7.370;2023-05-10T03:20:06;11.40;99.90
12885;DHT22;6510;51.362;7.370;2023-05-10T03:22:36;11.40;99.90
12885;DHT22;6510;51.362;7.370;2023-05-10T03:25:05;11.40;99.90
12885;DHT22;6510;51.362;7.370;2023-05-10T03:27:32;11.30;99.90
12885;DHT22;6510;51.362;7.370;2023-05-10T03:30:00;11.30;99.90
12885;DHT22;6510;51.362;7.370;2023-05-10T03:32:29;11.30;99.90
12885;DHT22;6510;51.362;7.370;2023-05-10T03:34:55;11.20;99.90
12885;DHT22;6510;51.362;7.370;2023-05-10T03:37:21;11.20;99.90
12885;DHT22;6510;51.362;7.370;2023-05-10T03:39:46;11.30;99.90
12885;DHT22;6510;51.362;7.370;2023-05-10T03:42:12;11.20;99.90
12885;DHT22;6510;51.362;7.370;2023-05-10T03:44:39;11.20;99.90
12885;DHT22;6510;51.362;7.370;2023-05-10T03:47:07;11.30;99.90
12885;DHT22;6510;51.362;7.370;2023-05-10T03:49:33;11.20;99.90
12885;DHT22;6510;51.362;7.370;2023-05-10T03:51:58;11.20;99.90
12885;DHT22;6510;51.362;7.370;2023-05-10T03:54:24;11.20;99.90
12885;DHT22;6510;51.362;7.370;2023-05-10T03:56:49;11.30;99.90
12885;DHT22;6510;51.362;7.370;2023-05-10T03:59:15;11.30;99.90
12885;DHT22;6510;51.362;7.370;2023-05-10T04:01:41;11.30;99.90
12885;DHT22;6510;51.362;7.370;2023-05-10T04:04:06;11.30;99.90
12885;DHT22;6510;51.362;7.370;2023-05-10T04:06:32;11.30;99.90
12885;DHT22;6510;51.362;7.370;2023-05-10T04:08:58;11.30;99.90
12885;DHT22;6510;51.362;7.370;2023-05-10T04:11:25;11.20;99.90
12885;DHT22;6510;51.362;7.370;2023-05-10T04:13:51;11.30;99.90
12885;DHT22;6510;51.362;7.370;2023-05-10T04:16:17;11.30;99.90
12885;DHT22;6510;51.362;7.370;2023-05-10T04:18:42;11.30;99.90
12885;DHT22;6510;51.362;7.370;2023-05-10T04:21:15;11.30;99.90
12885;DHT22;6510;51.362;7.370;2023-05-10T04:23:40;11.30;99.90
12885;DHT22;6510;51.362;7.370;2023-05-10T04:26:06;11.40;99.90
12885;DHT22;6510;51.362;7.370;2023-05-10T04:28:32;11.30;99.90
12885;DHT22;6510;51.362;7.370;2023-05-10T04:31:10;11.40;99.90
12885;DHT22;6510;51.362;7.370;2023-05-10T04:33:37;11.30;99.90
12885;DHT22;6510;51.362;7.370;2023-05-10T04:36:03;11.40;99.90
12885;DHT22;6510;51.362;7.370;2023-05-10T04:38:29;11.40;99.90
12885;DHT22;6510;51.362;7.370;2023-05-10T04:41:04;11.40;99.90
12885;DHT22;6510;51.362;7.370;2023-05-10T04:43:30;11.40;99.90
12885;DHT22;6510;51.362;7.370;2023-05-10T04:45:59;11.40;99.90
12885;DHT22;6510;51.362;7.370;2023-05-10T04:48:25;11.40;99.90
12885;DHT22;6510;51.362;7.370;2023-05-10T04:50:50;11.40;99.90
12885;DHT22;6510;51.362;7.370;2023-05-10T04:53:16;11.40;99.90
12885;DHT22;6510;51.362;7.370;2023-05-10T04:55:42;11.40;99.90
12885;DHT22;6510;51.362;7.370;2023-05-10T04:58:07;11.40;99.90
12885;DHT22;6510;51.362;7.370;2023-05-10T05:00:33;11.40;99.90
12885;DHT22;6510;51.362;7.370;2023-05-10T05:02:59;11.50;99.90
12885;DHT22;6510;51.362;7.370;2023-05-10T05:05:24;11.50;99.90
12885;DHT22;6510;51.362;7.370;2023-05-10T05:07:50;11.50;99.90
12885;DHT22;6510;51.362;7.370;2023-05-10T05:10:16;11.50;99.90
12885;DHT22;6510;51.362;7.370;2023-05-10T05:12:42;11.50;99.90
12885;DHT22;6510;51.362;7.370;2023-05-10T05:15:08;11.60;99.90
12885;DHT22;6510;51.362;7.370;2023-05-10T05:17:35;11.60;99.90
12885;DHT22;6510;51.362;7.370;2023-05-10T05:20:00;11.60;99.90
12885;DHT22;6510;51.362;7.370;2023-05-10T05:22:26;11.60;99.90
12885;DHT22;6510;51.362;7.370;2023-05-10T05:24:56;11.60;99.90
12885;DHT22;6510;51.362;7.370;2023-05-10T05:27:23;11.70;99.90
12885;DHT22;6510;51.362;7.370;2023-05-10T05:29:55;11.70;99.90
12885;DHT22;6510;51.362;7.370;2023-05-10T05:32:22;11.70;99.90
12885;DHT22;6510;51.362;7.370;2023-05-10T05:34:48;11.70;99.90
12885;DHT22;6510;51.362;7.370;2023-05-10T05:37:14;11.80;99.90
12885;DHT22;6510;51.362;7.370;2023-05-10T05:39:40;11.80;99.90
12885;DHT22;6510;51.362;7.370;2023-05-10T05:42:05;11.90;99.90
12885;DHT22;6510;51.362;7.370;2023-05-10T05:44:31;11.90;99.90
12885;DHT22;6510;51.362;7.370;2023-05-10T05:46:57;11.90;99.90
12885;DHT22;6510;51.362;7.370;2023-05-10T05:49:22;11.90;99.90
12885;DHT22;6510;51.362;7.370;2023-05-10T05:51:48;11.90;99.90
12885;DHT22;6510;51.362;7.370;2023-05-10T05:54:15;12.00;99.90
12885;DHT22;6510;51.362;7.370;2023-05-10T05:56:41;12.00;99.90
12885;DHT22;6510;51.362;7.370;2023-05-10T05:59:06;12.00;99.90
12885;DHT22;6510;51.362;7.370;2023-05-10T06:01:33;12.10;99.90
12885;DHT22;6510;51.362;7.370;2023-05-10T06:03:59;12.10;99.90
12885;DHT22;6510;51.362;7.370;2023-05-10T06:06:24;12.10;99.90
12885;DHT22;6510;51.362;7.370;2023-05-10T06:08:50;12.10;99.90
12885;DHT22;6510;51.362;7.370;2023-05-10T06:11:15;12.30;99.90
12885;DHT22;6510;51.362;7.370;2023-05-10T06:13:41;12.40;99.90
12885;DHT22;6510;51.362;7.370;2023-05-10T06:16:07;12.50;99.90
12885;DHT22;6510;51.362;7.370;2023-05-10T06:18:33;12.60;99.90
12885;DHT22;6510;51.362;7.370;2023-05-10T06:20:59;12.70;99.90
12885;DHT22;6510;51.362;7.370;2023-05-10T06:23:25;12.80;99.90
12885;DHT22;6510;51.362;7.370;2023-05-10T06:25:51;12.80;99.90
12885;DHT22;6510;51.362;7.370;2023-05-10T06:28:17;12.90;99.90
12885;DHT22;6510;51.362;7.370;2023-05-10T06:30:42;13.00;99.90
12885;DHT22;6510;51.362;7.370;2023-05-10T06:33:08;12.90;99.90
12885;DHT22;6510;51.362;7.370;2023-05-10T06:35:34;12.80;99.90
12885;DHT22;6510;51.362;7.370;2023-05-10T06:38:00;12.80;99.90
12885;DHT22;6510;51.362;7.370;2023-05-10T06:40:25;12.70;99.90
12885;DHT22;6510;51.362;7.370;2023-05-10T06:42:51;12.70;99.90
12885;DHT22;6510;51.362;7.370;2023-05-10T06:45:17;12.90;99.90
12885;DHT22;6510;51.362;7.370;2023-05-10T06:47:43;13.30;99.90
12885;DHT22;6510;51.362;7.370;2023-05-10T06:50:09;13.40;99.90
12885;DHT22;6510;51.362;7.370;2023-05-10T06:52:35;13.40;99.90
12885;DHT22;6510;51.362;7.370;2023-05-10T06:55:01;13.70;99.90
12885;DHT22;6510;51.362;7.370;2023-05-10T06:57:27;13.80;99.90
12885;DHT22;6510;51.362;7.370;2023-05-10T06:59:52;13.90;99.90
12885;DHT22;6510;51.362;7.370;2023-05-10T07:02:18;14.70;99.90
12885;DHT22;6510;51.362;7.370;2023-05-10T07:04:44;15.20;99.90
12885;DHT22;6510;51.362;7.370;2023-05-10T07:07:09;15.40;99.90
12885;DHT22;6510;51.362;7.370;2023-05-10T07:09:35;15.00;99.90
12885;DHT22;6510;51.362;7.370;2023-05-10T07:12:01;14.60;99.90
12885;DHT22;6510;51.362;7.370;2023-05-10T07:14:27;15.00;99.90
12885;DHT22;6510;51.362;7.370;2023-05-10T07:16:53;15.00;99.90
12885;DHT22;6510;51.362;7.370;2023-05-10T07:19:18;14.60;99.90
12885;DHT22;6510;51.362;7.370;2023-05-10T07:21:45;14.70;99.90
12885;DHT22;6510;51.362;7.370;2023-05-10T07:24:10;14.80;99.90
12885;DHT22;6510;51.362;7.370;2023-05-10T07:26:36;14.40;99.90
12885;DHT22;6510;51.362;7.370;2023-05-10T07:29:02;14.20;99.90
12885;DHT22;6510;51.362;7.370;2023-05-10T07:31:28;13.80;99.90
12885;DHT22;6510;51.362;7.370;2023-05-10T07:33:53;13.40;99.90
12885;DHT22;6510;51.362;7.370;2023-05-10T07:36:19;13.40;99.90
12885;DHT22;6510;51.362;7.370;2023-05-10T07:38:45;13.60;99.90
12885;DHT22;6510;51.362;7.370;2023-05-10T07:41:12;13.50;99.90
12885;DHT22;6510;51.362;7.370;2023-05-10T07:43:38;13.50;99.90
12885;DHT22;6510;51.362;7.370;2023-05-10T07:46:05;13.70;99.90
12885;DHT22;6510;51.362;7.370;2023-05-10T07:48:30;13.80;99.90
12885;DHT22;6510;51.362;7.370;2023-05-10T07:50:56;13.80;99.90
12885;DHT22;6510;51.362;7.370;2023-05-10T07:53:22;13.90;99.90
12885;DHT22;6510;51.362;7.370;2023-05-10T07:55:51;13.90;99.90
12885;DHT22;6510;51.362;7.370;2023-05-10T07:58:19;14.00;99.90
12885;DHT22;6510;51.362;7.370;2023-05-10T08:00:45;14.00;99.90
12885;DHT22;6510;51.362;7.370;2023-05-10T08:03:10;13.80;99.90
12885;DHT22;6510;51.362;7.370;2023-05-10T08:05:36;13.80;99.90
12885;DHT22;6510;51.362;7.370;2023-05-10T08:08:04;13.80;99.90
12885;DHT22;6510;51.362;7.370;2023-05-10T08:10:30;13.80;99.90
12885;DHT22;6510;51.362;7.370;2023-05-10T08:12:55;14.00;99.90
12885;DHT22;6510;51.362;7.370;2023-05-10T08:15:21;13.90;99.90
12885;DHT22;6510;51.362;7.370;2023-05-10T08:17:47;13.70;99.90
12885;DHT22;6510;51.362;7.370;2023-05-10T08:20:12;13.80;99.90
12885;DHT22;6510;51.362;7.370;2023-05-10T08:22:41;13.80;99.90
12885;DHT22;6510;51.362;7.370;2023-05-10T08:25:07;13.80;99.90
12885;DHT22;6510;51.362;7.370;2023-05-10T08:27:33;13.70;99.90
12885;DHT22;6510;51.362;7.370;2023-05-10T08:29:59;13.80;99.90
12885;DHT22;6510;51.362;7.370;2023-05-10T08:32:24;14.00;99.90
12885;DHT22;6510;51.362;7.370;2023-05-10T08:34:50;14.10;99.90
12885;DHT22;6510;51.362;7.370;2023-05-10T08:37:16;14.20;99.90
12885;DHT22;6510;51.362;7.370;2023-05-10T08:39:42;14.30;99.90
12885;DHT22;6510;51.362;7.370;2023-05-10T08:42:09;15.10;99.90
12885;DHT22;6510;51.362;7.370;2023-05-10T08:44:35;16.10;99.90
12885;DHT22;6510;51.362;7.370;2023-05-10T08:47:05;16.50;99.90
12885;DHT22;6510;51.362;7.370;2023-05-10T08:49:32;16.50;99.90
12885;DHT22;6510;51.362;7.370;2023-05-10T08:52:02;15.60;99.90
12885;DHT22;6510;51.362;7.370;2023-05-10T08:54:29;15.60;99.90
12885;DHT22;6510;51.362;7.370;2023-05-10T08:56:56;16.70;99.90
12885;DHT22;6510;51.362;7.370;2023-05-10T08:59:22;18.00;99.90
12885;DHT22;6510;51.362;7.370;2023-05-10T09:01:48;17.60;99.90
12885;DHT22;6510;51.362;7.370;2023-05-10T09:04:14;16.80;99.90
12885;DHT22;6510;51.362;7.370;2023-05-10T09:06:40;16.20;99.90
12885;DHT22;6510;51.362;7.370;2023-05-10T09:09:06;15.90;99.90
12885;DHT22;6510;51.362;7.370;2023-05-10T09:11:32;15.20;99.90
12885;DHT22;6510;51.362;7.370;2023-05-10T09:13:58;14.90;99.90
12885;DHT22;6510;51.362;7.370;2023-05-10T09:16:23;14.70;99.90
12885;DHT22;6510;51.362;7.370;2023-05-10T09:18:49;14.50;99.90
12885;DHT22;6510;51.362;7.370;2023-05-10T09:21:15;14.60;99.90
12885;DHT22;6510;51.362;7.370;2023-05-10T09:23:45;14.30;99.90
12885;DHT22;6510;51.362;7.370;2023-05-10T09:26:12;14.10;99.90
12885;DHT22;6510;51.362;7.370;2023-05-10T09:28:54;14.00;99.90
12885;DHT22;6510;51.362;7.370;2023-05-10T09:31:20;14.20;99.90
12885;DHT22;6510;51.362;7.370;2023-05-10T09:33:47;14.70;99.90
12885;DHT22;6510;51.362;7.370;2023-05-10T09:36:14;15.10;99.90
12885;DHT22;6510;51.362;7.370;2023-05-10T09:41:21;17.50;99.90
12885;DHT22;6510;51.362;7.370;2023-05-10T09:43:47;18.10;99.90
12885;DHT22;6510;51.362;7.370;2023-05-10T09:46:13;18.00;99.90
12885;DHT22;6510;51.362;7.370;2023-05-10T09:48:45;17.00;99.90
12885;DHT22;6510;51.362;7.370;2023-05-10T09:51:21;16.60;99.90
12885;DHT22;6510;51.362;7.370;2023-05-10T09:53:47;15.60;99.90
12885;DHT22;6510;51.362;7.370;2023-05-10T09:56:33;15.20;99.90
12885;DHT22;6510;51.362;7.370;2023-05-10T09:59:03;15.30;99.90
12885;DHT22;6510;51.362;7.370;2023-05-10T10:01:29;15.00;99.90
12885;DHT22;6510;51.362;7.370;2023-05-10T10:03:56;14.80;99.90
12885;DHT22;6510;51.362;7.370;2023-05-10T10:06:23;15.00;99.90
12885;DHT22;6510;51.362;7.370;2023-05-10T10:08:50;14.90;99.90
12885;DHT22;6510;51.362;7.370;2023-05-10T10:11:16;15.00;99.90
12885;DHT22;6510;51.362;7.370;2023-05-10T10:13:41;15.20;99.90
12885;DHT22;6510;51.362;7.370;2023-05-10T10:16:08;15.50;99.90
12885;DHT22;6510;51.362;7.370;2023-05-10T10:18:36;17.40;99.90
12885;DHT22;6510;51.362;7.370;2023-05-10T10:21:07;18.20;99.90
12885;DHT22;6510;51.362;7.370;2023-05-10T10:23:35;17.30;99.90
12885;DHT22;6510;51.362;7.370;2023-05-10T10:26:04;17.00;99.90
12885;DHT22;6510;51.362;7.370;2023-05-10T10:28:39;16.60;99.90
12885;DHT22;6510;51.362;7.370;2023-05-10T10:31:36;16.30;99.90
12885;DHT22;6510;51.362;7.370;2023-05-10T10:34:26;15.70;99.90
12885;DHT22;6510;51.362;7.370;2023-05-10T10:36:54;15.40;99.90
12885;DHT22;6510;51.362;7.370;2023-05-10T10:39:20;15.50;99.90
12885;DHT22;6510;51.362;7.370;2023-05-10T10:41:54;15.20;99.90
12885;DHT22;6510;51.362;7.370;2023-05-10T10:52:22;15.00;99.90
12885;DHT22;6510;51.362;7.370;2023-05-10T10:57:19;16.40;99.90
12885;DHT22;6510;51.362;7.370;2023-05-10T10:59:47;16.20;99.90
12885;DHT22;6510;51.362;7.370;2023-05-10T11:10:26;15.50;99.90
12885;DHT22;6510;51.362;7.370;2023-05-10T11:13:06;15.80;99.90
12885;DHT22;6510;51.362;7.370;2023-05-10T11:15:33;15.50;99.90
12885;DHT22;6510;51.362;7.370;2023-05-10T11:18:00;15.70;99.90
12885;DHT22;6510;51.362;7.370;2023-05-10T11:20:41;16.00;99.90
12885;DHT22;6510;51.362;7.370;2023-05-10T11:23:14;15.90;99.90
12885;DHT22;6510;51.362;7.370;2023-05-10T11:25:44;15.90;99.90
12885;DHT22;6510;51.362;7.370;2023-05-10T11:28:14;16.00;99.90
12885;DHT22;6510;51.362;7.370;2023-05-10T11:30:41;15.90;99.90
12885;DHT22;6510;51.362;7.370;2023-05-10T11:33:07;16.30;99.90
12885;DHT22;6510;51.362;7.370;2023-05-10T11:35:40;16.20;99.90
12885;DHT22;6510;51.362;7.370;2023-05-10T11:38:07;16.60;99.90
12885;DHT22;6510;51.362;7.370;2023-05-10T11:40:33;16.80;99.90
12885;DHT22;6510;51.362;7.370;2023-05-10T11:42:59;17.10;99.90
12885;DHT22;6510;51.362;7.370;2023-05-10T11:45:25;17.10;99.90
12885;DHT22;6510;51.362;7.370;2023-05-10T11:47:51;17.00;99.90
12885;DHT22;6510;51.362;7.370;2023-05-10T11:50:17;16.10;99.90
12885;DHT22;6510;51.362;7.370;2023-05-10T11:52:43;15.80;99.90
12885;DHT22;6510;51.362;7.370;2023-05-10T11:55:09;15.70;99.90
12885;DHT22;6510;51.362;7.370;2023-05-10T11:57:35;15.30;99.90
12885;DHT22;6510;51.362;7.370;2023-05-10T12:00:01;15.50;99.90
12885;DHT22;6510;51.362;7.370;2023-05-10T12:02:29;15.50;99.90
12885;DHT22;6510;51.362;7.370;2023-05-10T12:04:55;16.30;99.90
12885;DHT22;6510;51.362;7.370;2023-05-10T12:07:21;17.30;99.90
12885;DHT22;6510;51.362;7.370;2023-05-10T12:10:07;17.30;99.90
12885;DHT22;6510;51.362;7.370;2023-05-10T12:12:41;16.90;99.90
12885;DHT22;6510;51.362;7.370;2023-05-10T12:15:16;16.40;99.90
12885;DHT22;6510;51.362;7.370;2023-05-10T12:17:44;16.80;99.90
12885;DHT22;6510;51.362;7.370;2023-05-10T12:20:20;16.10;99.90
12885;DHT22;6510;51.362;7.370;2023-05-10T12:22:51;16.90;99.90
12885;DHT22;6510;51.362;7.370;2023-05-10T12:25:18;17.40;99.90
12885;DHT22;6510;51.362;7.370;2023-05-10T12:27:58;16.80;99.90
12885;DHT22;6510;51.362;7.370;2023-05-10T12:30:27;15.90;99.90
12885;DHT22;6510;51.362;7.370;2023-05-10T12:32:53;16.30;99.90
12885;DHT22;6510;51.362;7.370;2023-05-10T12:35:20;16.20;99.90
12885;DHT22;6510;51.362;7.370;2023-05-10T12:37:50;16.30;99.90
12885;DHT22;6510;51.362;7.370;2023-05-10T12:40:16;16.10;99.90
12885;DHT22;6510;51.362;7.370;2023-05-10T12:42:42;16.10;99.90
12885;DHT22;6510;51.362;7.370;2023-05-10T12:45:10;16.60;99.90
12885;DHT22;6510;51.362;7.370;2023-05-10T12:47:36;16.40;99.90
12885;DHT22;6510;51.362;7.370;2023-05-10T12:50:02;16.20;99.90
12885;DHT22;6510;51.362;7.370;2023-05-10T12:52:28;16.20;99.90
12885;DHT22;6510;51.362;7.370;2023-05-10T12:54:54;15.90;99.90
12885;DHT22;6510;51.362;7.370;2023-05-10T12:57:20;16.20;99.90
12885;DHT22;6510;51.362;7.370;2023-05-10T12:59:46;16.20;99.90
12885;DHT22;6510;51.362;7.370;2023-05-10T13:02:11;16.40;99.90
12885;DHT22;6510;51.362;7.370;2023-05-10T13:04:37;16.60;99.90
12885;DHT22;6510;51.362;7.370;2023-05-10T13:07:08;16.70;99.90
12885;DHT22;6510;51.362;7.370;2023-05-10T13:09:34;16.40;99.90
12885;DHT22;6510;51.362;7.370;2023-05-10T13:12:00;15.80;99.90
12885;DHT22;6510;51.362;7.370;2023-05-10T13:14:26;15.50;99.90
12885;DHT22;6510;51.362;7.370;2023-05-10T13:16:52;15.50;99.90
12885;DHT22;6510;51.362;7.370;2023-05-10T13:19:17;15.70;99.90
12885;DHT22;6510;51.362;7.370;2023-05-10T13:21:43;15.70;99.90
12885;DHT22;6510;51.362;7.370;2023-05-10T13:24:12;15.60;99.90
12885;DHT22;6510;51.362;7.370;2023-05-10T13:26:42;15.60;99.90
12885;DHT22;6510;51.362;7.370;2023-05-10T13:29:08;15.60;99.90
12885;DHT22;6510;51.362;7.370;2023-05-10T13:31:35;15.90;99.90
12885;DHT22;6510;51.362;7.370;2023-05-10T13:34:01;16.00;99.90
12885;DHT22;6510;51.362;7.370;2023-05-10T13:36:27;16.00;99.90
12885;DHT22;6510;51.362;7.370;2023-05-10T13:38:53;15.60;99.90
12885;DHT22;6510;51.362;7.370;2023-05-10T13:41:18;15.90;99.90
12885;DHT22;6510;51.362;7.370;2023-05-10T13:43:44;15.80;99.90
12885;DHT22;6510;51.362;7.370;2023-05-10T13:46:10;16.00;99.90
12885;DHT22;6510;51.362;7.370;2023-05-10T13:48:35;16.00;99.90
12885;DHT22;6510;51.362;7.370;2023-05-10T13:51:02;16.00;99.90
12885;DHT22;6510;51.362;7.370;2023-05-10T13:53:28;16.40;99.90
12885;DHT22;6510;51.362;7.370;2023-05-10T13:55:53;16.60;99.90
12885;DHT22;6510;51.362;7.370;2023-05-10T13:58:19;16.40;99.90
12885;DHT22;6510;51.362;7.370;2023-05-10T14:00:45;16.50;99.90
12885;DHT22;6510;51.362;7.370;2023-05-10T14:03:10;17.20;99.90
12885;DHT22;6510;51.362;7.370;2023-05-10T14:05:36;17.70;99.90
12885;DHT22;6510;51.362;7.370;2023-05-10T14:08:02;18.00;99.90
12885;DHT22;6510;51.362;7.370;2023-05-10T14:10:28;18.20;99.90
12885;DHT22;6510;51.362;7.370;2023-05-10T14:12:53;17.20;99.90
12885;DHT22;6510;51.362;7.370;2023-05-10T14:15:19;17.20;99.90
12885;DHT22;6510;51.362;7.370;2023-05-10T14:17:44;17.00;99.90
12885;DHT22;6510;51.362;7.370;2023-05-10T14:20:10;16.70;99.90
12885;DHT22;6510;51.362;7.370;2023-05-10T14:22:36;17.00;99.90
12885;DHT22;6510;51.362;7.370;2023-05-10T14:25:02;17.60;99.90
12885;DHT22;6510;51.362;7.370;2023-05-10T14:27:28;17.70;99.90
12885;DHT22;6510;51.362;7.370;2023-05-10T14:29:53;17.70;99.90
12885;DHT22;6510;51.362;7.370;2023-05-10T14:32:19;18.20;99.90
12885;DHT22;6510;51.362;7.370;2023-05-10T14:34:45;18.20;99.90
12885;DHT22;6510;51.362;7.370;2023-05-10T14:37:12;18.00;99.90
12885;DHT22;6510;51.362;7.370;2023-05-10T14:39:38;18.00;99.90
12885;DHT22;6510;51.362;7.370;2023-05-10T14:42:05;17.40;99.90
12885;DHT22;6510;51.362;7.370;2023-05-10T14:44:31;17.20;99.90
12885;DHT22;6510;51.362;7.370;2023-05-10T14:46:56;17.50;99.90
12885;DHT22;6510;51.362;7.370;2023-05-10T14:49:22;17.40;99.90
12885;DHT22;6510;51.362;7.370;2023-05-10T14:51:50;17.30;99.90
12885;DHT22;6510;51.362;7.370;2023-05-10T14:54:15;17.40;99.90
12885;DHT22;6510;51.362;7.370;2023-05-10T14:56:41;17.10;99.90
12885;DHT22;6510;51.362;7.370;2023-05-10T14:59:07;17.30;99.90
12885;DHT22;6510;51.362;7.370;2023-05-10T15:01:33;17.60;99.90
12885;DHT22;6510;51.362;7.370;2023-05-10T15:04:03;17.50;99.90
12885;DHT22;6510;51.362;7.370;2023-05-10T15:06:32;17.50;99.90
12885;DHT22;6510;51.362;7.370;2023-05-10T15:08:58;17.40;99.90
12885;DHT22;6510;51.362;7.370;2023-05-10T15:11:23;17.40;99.90
12885;DHT22;6510;51.362;7.370;2023-05-10T15:13:49;17.70;99.90
12885;DHT22;6510;51.362;7.370;2023-05-10T15:16:14;17.60;99.90
12885;DHT22;6510;51.362;7.370;2023-05-10T15:18:40;17.70;99.90
12885;DHT22;6510;51.362;7.370;2023-05-10T15:21:06;17.70;99.90
12885;DHT22;6510;51.362;7.370;2023-05-10T15:23:31;17.30;99.90
12885;DHT22;6510;51.362;7.370;2023-05-10T15:25:57;16.90;99.90
12885;DHT22;6510;51.362;7.370;2023-05-10T15:28:23;16.70;99.90
12885;DHT22;6510;51.362;7.370;2023-05-10T15:30:48;16.70;99.90
12885;DHT22;6510;51.362;7.370;2023-05-10T15:33:14;16.70;99.90
12885;DHT22;6510;51.362;7.370;2023-05-10T15:35:40;16.70;99.90
12885;DHT22;6510;51.362;7.370;2023-05-10T15:38:06;16.60;99.90
12885;DHT22;6510;51.362;7.370;2023-05-10T15:40:32;16.70;99.90
12885;DHT22;6510;51.362;7.370;2023-05-10T15:43:00;16.80;99.90
12885;DHT22;6510;51.362;7.370;2023-05-10T15:45:26;16.80;99.90
12885;DHT22;6510;51.362;7.370;2023-05-10T15:47:54;17.00;99.90
12885;DHT22;6510;51.362;7.370;2023-05-10T15:50:19;16.90;99.90
12885;DHT22;6510;51.362;7.370;2023-05-10T15:52:45;16.70;99.90
12885;DHT22;6510;51.362;7.370;2023-05-10T15:55:11;17.10;99.90
12885;DHT22;6510;51.362;7.370;2023-05-10T15:57:40;17.10;99.90
12885;DHT22;6510;51.362;7.370;2023-05-10T16:00:08;16.90;99.90
12885;DHT22;6510;51.362;7.370;2023-05-10T16:02:34;16.80;99.90
12885;DHT22;6510;51.362;7.370;2023-05-10T16:05:00;16.90;99.90
12885;DHT22;6510;51.362;7.370;2023-05-10T16:07:26;16.80;99.90
12885;DHT22;6510;51.362;7.370;2023-05-10T16:09:51;16.70;99.90
12885;DHT22;6510;51.362;7.370;2023-05-10T16:12:17;16.70;99.90